sensor_id;sensor_type;location;lat;lon;timestamp;P1;durP1;ratioP1;P2;durP2;ratioP2
75520;SDS011;64102;48.628;9.002;2023-02-28T00:00:19;3.78;;;0.20;;
75520;SDS011;64102;48.628;9.002;2023-02-28T00:02:46;4.00;;;0.10;;
75520;SDS011;64102;48.628;9.002;2023-02-28T00:05:13;4.63;;;0.30;;
75520;SDS011;64102;48.628;9.002;2023-02-28T00:07:40;1.48;;;0.10;;
75520;SDS011;64102;48.628;9.002;2023-02-28T00:10:07;1.38;;;0.10;;
75520;SDS011;64102;48.628;9.002;2023-02-28T00:12:35;2.75;;;0.10;;
75520;SDS011;64102;48.628;9.002;2023-02-28T00:15:02;2.00;;;0.10;;
75520;SDS011;64102;48.628;9.002;2023-02-28T00:17:30;2.05;;;0.20;;
75520;SDS011;64102;48.628;9.002;2023-02-28T00:19:55;0.90;;;0.00;;
75520;SDS011;64102;48.628;9.002;2023-02-28T00:22:22;2.42;;;0.20;;
75520;SDS011;64102;48.628;9.002;2023-02-28T00:24:47;1.25;;;0.00;;
75520;SDS011;64102;48.628;9.002;2023-02-28T00:27:13;2.95;;;0.10;;
75520;SDS011;64102;48.628;9.002;2023-02-28T00:29:39;1.42;;;0.10;;
75520;SDS011;64102;48.628;9.002;2023-02-28T00:32:05;4.13;;;0.10;;
75520;SDS011;64102;48.628;9.002;2023-02-28T00:34:31;1.30;;;0.00;;
75520;SDS011;64102;48.628;9.002;2023-02-28T00:37:02;1.90;;;0.10;;
75520;SDS011;64102;48.628;9.002;2023-02-28T00:39:32;1.27;;;0.00;;
75520;SDS011;64102;48.628;9.002;2023-02-28T00:41:59;0.95;;;0.00;;
75520;SDS011;64102;48.628;9.002;2023-02-28T00:44:24;1.70;;;0.20;;
75520;SDS011;64102;48.628;9.002;2023-02-28T00:46:49;1.95;;;0.10;;
75520;SDS011;64102;48.628;9.002;2023-02-28T00:49:15;2.43;;;0.10;;
75520;SDS011;64102;48.628;9.002;2023-02-28T00:51:40;3.88;;;0.20;;
75520;SDS011;64102;48.628;9.002;2023-02-28T00:54:06;3.40;;;0.20;;
75520;SDS011;64102;48.628;9.002;2023-02-28T00:56:31;2.58;;;0.10;;
75520;SDS011;64102;48.628;9.002;2023-02-28T00:58:56;2.25;;;0.10;;
75520;SDS011;64102;48.628;9.002;2023-02-28T01:01:22;3.73;;;0.20;;
75520;SDS011;64102;48.628;9.002;2023-02-28T01:03:47;2.10;;;0.27;;
75520;SDS011;64102;48.628;9.002;2023-02-28T01:06:12;2.73;;;0.37;;
75520;SDS011;64102;48.628;9.002;2023-02-28T01:08:38;0.47;;;0.00;;
75520;SDS011;64102;48.628;9.002;2023-02-28T01:11:07;2.37;;;0.37;;
75520;SDS011;64102;48.628;9.002;2023-02-28T01:13:36;1.52;;;0.10;;
75520;SDS011;64102;48.628;9.002;2023-02-28T01:16:01;3.00;;;0.10;;
75520;SDS011;64102;48.628;9.002;2023-02-28T01:18:27;3.22;;;0.20;;
75520;SDS011;64102;48.628;9.002;2023-02-28T01:20:53;1.83;;;0.10;;
75520;SDS011;64102;48.628;9.002;2023-02-28T01:23:19;3.88;;;0.17;;
75520;SDS011;64102;48.628;9.002;2023-02-28T01:25:46;2.60;;;0.20;;
75520;SDS011;64102;48.628;9.002;2023-02-28T01:28:11;0.60;;;0.00;;
75520;SDS011;64102;48.628;9.002;2023-02-28T01:30:37;3.80;;;0.20;;
75520;SDS011;64102;48.628;9.002;2023-02-28T01:33:02;0.47;;;0.00;;
75520;SDS011;64102;48.628;9.002;2023-02-28T01:35:28;1.67;;;0.13;;
75520;SDS011;64102;48.628;9.002;2023-02-28T01:37:53;2.10;;;0.27;;
75520;SDS011;64102;48.628;9.002;2023-02-28T01:40:19;2.88;;;0.10;;
75520;SDS011;64102;48.628;9.002;2023-02-28T01:42:44;2.30;;;0.10;;
75520;SDS011;64102;48.628;9.002;2023-02-28T01:45:21;1.13;;;0.13;;
75520;SDS011;64102;48.628;9.002;2023-02-28T01:47:47;3.00;;;0.20;;
75520;SDS011;64102;48.628;9.002;2023-02-28T01:50:16;1.48;;;0.08;;
75520;SDS011;64102;48.628;9.002;2023-02-28T01:52:45;3.50;;;0.22;;
75520;SDS011;64102;48.628;9.002;2023-02-28T01:55:13;2.67;;;0.10;;
75520;SDS011;64102;48.628;9.002;2023-02-28T01:57:42;1.45;;;0.10;;
75520;SDS011;64102;48.628;9.002;2023-02-28T02:00:14;1.75;;;0.10;;
75520;SDS011;64102;48.628;9.002;2023-02-28T02:02:43;5.97;;;0.15;;
75520;SDS011;64102;48.628;9.002;2023-02-28T02:05:12;2.92;;;0.25;;
75520;SDS011;64102;48.628;9.002;2023-02-28T02:07:41;4.95;;;0.43;;
75520;SDS011;64102;48.628;9.002;2023-02-28T02:18:17;3.13;;;0.43;;
75520;SDS011;64102;48.628;9.002;2023-02-28T02:21:15;2.65;;;0.00;;
75520;SDS011;64102;48.628;9.002;2023-02-28T02:34:52;7.25;;;0.15;;
75520;SDS011;64102;48.628;9.002;2023-02-28T02:40:27;3.13;;;0.30;;
75520;SDS011;64102;48.628;9.002;2023-02-28T02:43:06;4.38;;;0.20;;
75520;SDS011;64102;48.628;9.002;2023-02-28T02:46:19;1.38;;;0.15;;
75520;SDS011;64102;48.628;9.002;2023-02-28T02:48:48;4.30;;;0.20;;
75520;SDS011;64102;48.628;9.002;2023-02-28T02:51:18;3.65;;;0.20;;
75520;SDS011;64102;48.628;9.002;2023-02-28T02:53:55;3.13;;;0.20;;
75520;SDS011;64102;48.628;9.002;2023-02-28T02:56:28;4.85;;;0.30;;
75520;SDS011;64102;48.628;9.002;2023-02-28T02:59:03;3.15;;;0.10;;
75520;SDS011;64102;48.628;9.002;2023-02-28T03:01:31;2.60;;;0.20;;
75520;SDS011;64102;48.628;9.002;2023-02-28T03:04:00;4.57;;;0.38;;
75520;SDS011;64102;48.628;9.002;2023-02-28T03:06:29;1.98;;;0.10;;
75520;SDS011;64102;48.628;9.002;2023-02-28T03:08:54;2.53;;;0.17;;
75520;SDS011;64102;48.628;9.002;2023-02-28T03:11:20;5.32;;;0.65;;
75520;SDS011;64102;48.628;9.002;2023-02-28T03:22:23;3.42;;;0.10;;
75520;SDS011;64102;48.628;9.002;2023-02-28T03:28:11;1.35;;;0.20;;
75520;SDS011;64102;48.628;9.002;2023-02-28T03:33:27;0.30;;;0.00;;
75520;SDS011;64102;48.628;9.002;2023-02-28T03:38:35;3.28;;;0.20;;
75520;SDS011;64102;48.628;9.002;2023-02-28T03:43:41;3.90;;;0.30;;
75520;SDS011;64102;48.628;9.002;2023-02-28T03:46:12;2.65;;;0.20;;
75520;SDS011;64102;48.628;9.002;2023-02-28T03:48:45;3.83;;;0.28;;
75520;SDS011;64102;48.628;9.002;2023-02-28T03:51:17;4.30;;;0.30;;
75520;SDS011;64102;48.628;9.002;2023-02-28T03:53:53;4.63;;;0.30;;
75520;SDS011;64102;48.628;9.002;2023-02-28T03:56:24;5.93;;;0.60;;
75520;SDS011;64102;48.628;9.002;2023-02-28T03:59:00;1.75;;;0.20;;
75520;SDS011;64102;48.628;9.002;2023-02-28T04:01:33;7.22;;;0.47;;
75520;SDS011;64102;48.628;9.002;2023-02-28T04:04:02;2.38;;;0.17;;
75520;SDS011;64102;48.628;9.002;2023-02-28T04:06:29;2.40;;;0.10;;
75520;SDS011;64102;48.628;9.002;2023-02-28T04:08:56;3.75;;;0.47;;
75520;SDS011;64102;48.628;9.002;2023-02-28T04:11:23;4.72;;;0.40;;
75520;SDS011;64102;48.628;9.002;2023-02-28T04:13:54;4.30;;;0.30;;
75520;SDS011;64102;48.628;9.002;2023-02-28T04:16:20;4.43;;;0.30;;
75520;SDS011;64102;48.628;9.002;2023-02-28T04:18:46;5.57;;;0.30;;
75520;SDS011;64102;48.628;9.002;2023-02-28T04:21:11;3.50;;;0.40;;
75520;SDS011;64102;48.628;9.002;2023-02-28T04:23:37;5.88;;;0.40;;
75520;SDS011;64102;48.628;9.002;2023-02-28T04:26:03;3.58;;;0.20;;
75520;SDS011;64102;48.628;9.002;2023-02-28T04:28:29;3.60;;;0.30;;
75520;SDS011;64102;48.628;9.002;2023-02-28T04:30:57;5.40;;;0.55;;
75520;SDS011;64102;48.628;9.002;2023-02-28T04:33:24;4.43;;;0.45;;
75520;SDS011;64102;48.628;9.002;2023-02-28T04:36:03;5.15;;;0.30;;
75520;SDS011;64102;48.628;9.002;2023-02-28T04:38:34;3.47;;;0.20;;
75520;SDS011;64102;48.628;9.002;2023-02-28T04:41:01;5.15;;;0.68;;
75520;SDS011;64102;48.628;9.002;2023-02-28T04:43:27;5.05;;;0.43;;
75520;SDS011;64102;48.628;9.002;2023-02-28T04:45:54;4.28;;;0.28;;
75520;SDS011;64102;48.628;9.002;2023-02-28T04:48:25;4.53;;;0.40;;
75520;SDS011;64102;48.628;9.002;2023-02-28T04:50:53;6.80;;;0.50;;
75520;SDS011;64102;48.628;9.002;2023-02-28T04:53:18;4.53;;;0.40;;
75520;SDS011;64102;48.628;9.002;2023-02-28T04:55:44;6.28;;;0.43;;
75520;SDS011;64102;48.628;9.002;2023-02-28T04:58:10;5.43;;;0.30;;
75520;SDS011;64102;48.628;9.002;2023-02-28T05:00:36;6.00;;;0.35;;
75520;SDS011;64102;48.628;9.002;2023-02-28T05:03:01;3.33;;;0.20;;
75520;SDS011;64102;48.628;9.002;2023-02-28T05:05:27;4.13;;;0.80;;
75520;SDS011;64102;48.628;9.002;2023-02-28T05:07:52;6.03;;;0.82;;
75520;SDS011;64102;48.628;9.002;2023-02-28T05:10:20;9.73;;;0.80;;
75520;SDS011;64102;48.628;9.002;2023-02-28T05:12:46;5.22;;;0.40;;
75520;SDS011;64102;48.628;9.002;2023-02-28T05:15:13;7.60;;;0.38;;
75520;SDS011;64102;48.628;9.002;2023-02-28T05:17:39;3.08;;;0.35;;
75520;SDS011;64102;48.628;9.002;2023-02-28T05:20:05;6.25;;;0.60;;
75520;SDS011;64102;48.628;9.002;2023-02-28T05:22:31;3.85;;;0.40;;
75520;SDS011;64102;48.628;9.002;2023-02-28T05:24:57;5.10;;;0.50;;
75520;SDS011;64102;48.628;9.002;2023-02-28T05:27:22;4.68;;;0.40;;
75520;SDS011;64102;48.628;9.002;2023-02-28T05:29:48;4.10;;;0.40;;
75520;SDS011;64102;48.628;9.002;2023-02-28T05:32:14;5.95;;;0.43;;
75520;SDS011;64102;48.628;9.002;2023-02-28T05:34:40;6.97;;;0.77;;
75520;SDS011;64102;48.628;9.002;2023-02-28T05:37:07;5.72;;;0.55;;
75520;SDS011;64102;48.628;9.002;2023-02-28T05:39:36;5.13;;;0.60;;
75520;SDS011;64102;48.628;9.002;2023-02-28T05:45:24;8.82;;;0.90;;
75520;SDS011;64102;48.628;9.002;2023-02-28T05:47:52;3.67;;;0.20;;
75520;SDS011;64102;48.628;9.002;2023-02-28T05:50:18;3.58;;;0.25;;
75520;SDS011;64102;48.628;9.002;2023-02-28T05:52:44;6.50;;;0.57;;
75520;SDS011;64102;48.628;9.002;2023-02-28T05:55:09;4.43;;;0.50;;
75520;SDS011;64102;48.628;9.002;2023-02-28T05:57:34;6.28;;;0.50;;
75520;SDS011;64102;48.628;9.002;2023-02-28T06:00:00;4.82;;;0.40;;
75520;SDS011;64102;48.628;9.002;2023-02-28T06:02:26;2.80;;;0.10;;
75520;SDS011;64102;48.628;9.002;2023-02-28T06:04:51;4.47;;;0.67;;
75520;SDS011;64102;48.628;9.002;2023-02-28T06:07:16;8.10;;;0.70;;
75520;SDS011;64102;48.628;9.002;2023-02-28T06:09:42;8.77;;;0.90;;
75520;SDS011;64102;48.628;9.002;2023-02-28T06:12:09;8.48;;;1.08;;
75520;SDS011;64102;48.628;9.002;2023-02-28T06:14:35;3.58;;;0.30;;
75520;SDS011;64102;48.628;9.002;2023-02-28T06:17:01;5.70;;;0.77;;
75520;SDS011;64102;48.628;9.002;2023-02-28T06:19:28;2.67;;;0.30;;
75520;SDS011;64102;48.628;9.002;2023-02-28T06:21:55;5.68;;;0.65;;
75520;SDS011;64102;48.628;9.002;2023-02-28T06:24:22;8.98;;;1.10;;
75520;SDS011;64102;48.628;9.002;2023-02-28T06:26:49;2.97;;;0.28;;
75520;SDS011;64102;48.628;9.002;2023-02-28T06:29:14;7.70;;;0.88;;
75520;SDS011;64102;48.628;9.002;2023-02-28T06:31:43;9.95;;;0.55;;
75520;SDS011;64102;48.628;9.002;2023-02-28T06:34:10;6.55;;;0.77;;
75520;SDS011;64102;48.628;9.002;2023-02-28T06:36:39;5.28;;;0.40;;
75520;SDS011;64102;48.628;9.002;2023-02-28T06:39:06;5.40;;;0.52;;
75520;SDS011;64102;48.628;9.002;2023-02-28T06:41:32;8.50;;;0.70;;
75520;SDS011;64102;48.628;9.002;2023-02-28T06:44:02;9.70;;;0.70;;
75520;SDS011;64102;48.628;9.002;2023-02-28T06:46:30;4.28;;;0.30;;
75520;SDS011;64102;48.628;9.002;2023-02-28T06:48:56;6.72;;;0.50;;
75520;SDS011;64102;48.628;9.002;2023-02-28T06:51:21;2.17;;;0.20;;
75520;SDS011;64102;48.628;9.002;2023-02-28T06:53:49;5.40;;;0.50;;
75520;SDS011;64102;48.628;9.002;2023-02-28T06:56:15;5.78;;;0.30;;
75520;SDS011;64102;48.628;9.002;2023-02-28T06:58:45;3.35;;;0.20;;
75520;SDS011;64102;48.628;9.002;2023-02-28T07:01:13;1.75;;;0.30;;
75520;SDS011;64102;48.628;9.002;2023-02-28T07:03:38;7.57;;;1.10;;
75520;SDS011;64102;48.628;9.002;2023-02-28T07:06:04;5.77;;;0.83;;
75520;SDS011;64102;48.628;9.002;2023-02-28T07:08:30;9.50;;;1.52;;
75520;SDS011;64102;48.628;9.002;2023-02-28T07:10:56;7.43;;;0.70;;
75520;SDS011;64102;48.628;9.002;2023-02-28T07:13:23;6.60;;;0.70;;
75520;SDS011;64102;48.628;9.002;2023-02-28T07:15:55;2.83;;;0.28;;
75520;SDS011;64102;48.628;9.002;2023-02-28T07:18:22;5.35;;;0.47;;
75520;SDS011;64102;48.628;9.002;2023-02-28T07:20:47;9.43;;;0.90;;
75520;SDS011;64102;48.628;9.002;2023-02-28T07:23:13;5.53;;;0.63;;
75520;SDS011;64102;48.628;9.002;2023-02-28T07:25:38;7.47;;;1.02;;
75520;SDS011;64102;48.628;9.002;2023-02-28T07:28:04;9.05;;;1.05;;
75520;SDS011;64102;48.628;9.002;2023-02-28T07:30:29;7.03;;;0.70;;
75520;SDS011;64102;48.628;9.002;2023-02-28T07:32:55;5.53;;;0.57;;
75520;SDS011;64102;48.628;9.002;2023-02-28T07:35:21;8.48;;;1.02;;
75520;SDS011;64102;48.628;9.002;2023-02-28T07:37:47;7.93;;;1.02;;
75520;SDS011;64102;48.628;9.002;2023-02-28T07:40:12;10.77;;;1.48;;
75520;SDS011;64102;48.628;9.002;2023-02-28T07:42:38;7.72;;;0.80;;
75520;SDS011;64102;48.628;9.002;2023-02-28T07:45:05;7.72;;;0.70;;
75520;SDS011;64102;48.628;9.002;2023-02-28T07:47:31;4.50;;;0.52;;
75520;SDS011;64102;48.628;9.002;2023-02-28T07:49:57;2.90;;;0.52;;
75520;SDS011;64102;48.628;9.002;2023-02-28T07:52:23;10.55;;;1.27;;
75520;SDS011;64102;48.628;9.002;2023-02-28T07:54:49;4.43;;;0.45;;
75520;SDS011;64102;48.628;9.002;2023-02-28T07:57:15;9.55;;;1.13;;
75520;SDS011;64102;48.628;9.002;2023-02-28T07:59:40;6.07;;;0.75;;
75520;SDS011;64102;48.628;9.002;2023-02-28T08:02:06;5.20;;;0.43;;
75520;SDS011;64102;48.628;9.002;2023-02-28T08:04:32;7.25;;;0.90;;
75520;SDS011;64102;48.628;9.002;2023-02-28T08:06:57;8.82;;;1.20;;
75520;SDS011;64102;48.628;9.002;2023-02-28T08:09:23;6.95;;;0.95;;
75520;SDS011;64102;48.628;9.002;2023-02-28T08:11:48;6.07;;;0.88;;
75520;SDS011;64102;48.628;9.002;2023-02-28T08:14:13;8.33;;;1.20;;
75520;SDS011;64102;48.628;9.002;2023-02-28T08:16:39;6.15;;;0.77;;
75520;SDS011;64102;48.628;9.002;2023-02-28T08:19:04;9.53;;;0.97;;
75520;SDS011;64102;48.628;9.002;2023-02-28T08:21:30;5.90;;;0.55;;
75520;SDS011;64102;48.628;9.002;2023-02-28T08:23:55;7.90;;;0.85;;
75520;SDS011;64102;48.628;9.002;2023-02-28T08:26:21;3.20;;;0.22;;
75520;SDS011;64102;48.628;9.002;2023-02-28T08:28:47;4.97;;;0.60;;
75520;SDS011;64102;48.628;9.002;2023-02-28T08:31:14;5.18;;;0.63;;
75520;SDS011;64102;48.628;9.002;2023-02-28T08:33:41;4.57;;;0.35;;
75520;SDS011;64102;48.628;9.002;2023-02-28T08:36:07;8.27;;;1.00;;
75520;SDS011;64102;48.628;9.002;2023-02-28T08:38:33;5.28;;;0.70;;
75520;SDS011;64102;48.628;9.002;2023-02-28T08:40:59;6.03;;;0.70;;
75520;SDS011;64102;48.628;9.002;2023-02-28T08:43:26;5.30;;;0.52;;
75520;SDS011;64102;48.628;9.002;2023-02-28T08:45:52;6.22;;;0.82;;
75520;SDS011;64102;48.628;9.002;2023-02-28T08:48:18;7.45;;;0.98;;
75520;SDS011;64102;48.628;9.002;2023-02-28T08:50:44;4.83;;;0.70;;
75520;SDS011;64102;48.628;9.002;2023-02-28T08:53:09;7.53;;;0.93;;
75520;SDS011;64102;48.628;9.002;2023-02-28T08:55:34;6.43;;;1.17;;
75520;SDS011;64102;48.628;9.002;2023-02-28T08:58:00;7.20;;;1.23;;
75520;SDS011;64102;48.628;9.002;2023-02-28T09:00:26;8.60;;;1.52;;
75520;SDS011;64102;48.628;9.002;2023-02-28T09:02:52;6.35;;;0.40;;
75520;SDS011;64102;48.628;9.002;2023-02-28T09:05:17;7.80;;;0.77;;
75520;SDS011;64102;48.628;9.002;2023-02-28T09:07:42;6.22;;;0.82;;
75520;SDS011;64102;48.628;9.002;2023-02-28T09:10:08;7.53;;;0.98;;
75520;SDS011;64102;48.628;9.002;2023-02-28T09:12:36;4.43;;;0.60;;
75520;SDS011;64102;48.628;9.002;2023-02-28T09:15:02;7.35;;;1.08;;
75520;SDS011;64102;48.628;9.002;2023-02-28T09:17:28;8.35;;;1.35;;
75520;SDS011;64102;48.628;9.002;2023-02-28T09:19:53;8.48;;;1.27;;
75520;SDS011;64102;48.628;9.002;2023-02-28T09:22:19;9.47;;;1.27;;
75520;SDS011;64102;48.628;9.002;2023-02-28T09:24:44;9.47;;;0.90;;
75520;SDS011;64102;48.628;9.002;2023-02-28T09:27:09;8.57;;;1.20;;
75520;SDS011;64102;48.628;9.002;2023-02-28T09:29:35;8.00;;;1.20;;
75520;SDS011;64102;48.628;9.002;2023-02-28T09:32:00;3.08;;;0.20;;
75520;SDS011;64102;48.628;9.002;2023-02-28T09:34:27;8.68;;;1.20;;
75520;SDS011;64102;48.628;9.002;2023-02-28T09:36:53;6.00;;;0.85;;
75520;SDS011;64102;48.628;9.002;2023-02-28T09:39:20;5.00;;;0.35;;
75520;SDS011;64102;48.628;9.002;2023-02-28T09:41:47;6.85;;;0.90;;
75520;SDS011;64102;48.628;9.002;2023-02-28T09:44:25;3.65;;;0.43;;
75520;SDS011;64102;48.628;9.002;2023-02-28T09:46:53;6.18;;;0.70;;
75520;SDS011;64102;48.628;9.002;2023-02-28T09:49:25;6.85;;;0.63;;
75520;SDS011;64102;48.628;9.002;2023-02-28T09:54:28;9.05;;;1.50;;
75520;SDS011;64102;48.628;9.002;2023-02-28T09:57:01;11.25;;;1.90;;
75520;SDS011;64102;48.628;9.002;2023-02-28T10:09:45;6.95;;;0.95;;
75520;SDS011;64102;48.628;9.002;2023-02-28T10:12:16;7.63;;;0.85;;
75520;SDS011;64102;48.628;9.002;2023-02-28T10:14:43;4.05;;;0.63;;
75520;SDS011;64102;48.628;9.002;2023-02-28T10:17:36;2.53;;;0.30;;
75520;SDS011;64102;48.628;9.002;2023-02-28T10:20:06;10.40;;;1.38;;
75520;SDS011;64102;48.628;9.002;2023-02-28T10:22:44;5.45;;;0.93;;
75520;SDS011;64102;48.628;9.002;2023-02-28T10:25:17;5.88;;;0.73;;
75520;SDS011;64102;48.628;9.002;2023-02-28T10:27:44;3.28;;;0.30;;
75520;SDS011;64102;48.628;9.002;2023-02-28T10:30:10;5.35;;;0.68;;
75520;SDS011;64102;48.628;9.002;2023-02-28T10:32:38;5.68;;;0.93;;
75520;SDS011;64102;48.628;9.002;2023-02-28T10:35:17;3.90;;;0.65;;
75520;SDS011;64102;48.628;9.002;2023-02-28T10:37:46;4.38;;;0.47;;
75520;SDS011;64102;48.628;9.002;2023-02-28T10:43:00;6.00;;;0.52;;
75520;SDS011;64102;48.628;9.002;2023-02-28T10:45:28;6.82;;;0.82;;
75520;SDS011;64102;48.628;9.002;2023-02-28T10:47:58;6.35;;;0.93;;
75520;SDS011;64102;48.628;9.002;2023-02-28T10:53:48;6.70;;;1.30;;
75520;SDS011;64102;48.628;9.002;2023-02-28T11:01:14;5.32;;;0.65;;
75520;SDS011;64102;48.628;9.002;2023-02-28T11:03:42;2.15;;;0.17;;
75520;SDS011;64102;48.628;9.002;2023-02-28T11:06:13;9.25;;;1.10;;
75520;SDS011;64102;48.628;9.002;2023-02-28T11:08:49;6.35;;;0.95;;
75520;SDS011;64102;48.628;9.002;2023-02-28T11:11:19;3.13;;;0.38;;
75520;SDS011;64102;48.628;9.002;2023-02-28T11:13:46;4.38;;;0.65;;
75520;SDS011;64102;48.628;9.002;2023-02-28T11:16:15;8.93;;;0.95;;
75520;SDS011;64102;48.628;9.002;2023-02-28T11:18:52;7.45;;;0.85;;
75520;SDS011;64102;48.628;9.002;2023-02-28T11:21:29;4.30;;;0.60;;
75520;SDS011;64102;48.628;9.002;2023-02-28T11:24:03;5.47;;;0.60;;
75520;SDS011;64102;48.628;9.002;2023-02-28T11:26:36;5.63;;;1.33;;
75520;SDS011;64102;48.628;9.002;2023-02-28T11:29:09;6.00;;;0.57;;
75520;SDS011;64102;48.628;9.002;2023-02-28T11:31:36;6.40;;;0.60;;
75520;SDS011;64102;48.628;9.002;2023-02-28T11:34:10;6.83;;;0.87;;
75520;SDS011;64102;48.628;9.002;2023-02-28T11:36:48;5.38;;;0.52;;
75520;SDS011;64102;48.628;9.002;2023-02-28T11:39:14;5.57;;;0.65;;
75520;SDS011;64102;48.628;9.002;2023-02-28T11:41:54;6.85;;;1.20;;
75520;SDS011;64102;48.628;9.002;2023-02-28T11:50:34;6.72;;;1.17;;
75520;SDS011;64102;48.628;9.002;2023-02-28T11:53:17;6.43;;;0.73;;
75520;SDS011;64102;48.628;9.002;2023-02-28T11:59:04;8.73;;;0.93;;
75520;SDS011;64102;48.628;9.002;2023-02-28T12:15:32;6.55;;;0.93;;
75520;SDS011;64102;48.628;9.002;2023-02-28T12:21:04;8.10;;;1.42;;
75520;SDS011;64102;48.628;9.002;2023-02-28T12:26:39;6.38;;;0.90;;
75520;SDS011;64102;48.628;9.002;2023-02-28T12:34:47;3.97;;;0.40;;
75520;SDS011;64102;48.628;9.002;2023-02-28T12:40:06;8.68;;;1.40;;
75520;SDS011;64102;48.628;9.002;2023-02-28T12:42:41;8.38;;;1.33;;
75520;SDS011;64102;48.628;9.002;2023-02-28T12:45:18;8.63;;;1.63;;
75520;SDS011;64102;48.628;9.002;2023-02-28T12:47:46;8.48;;;1.02;;
75520;SDS011;64102;48.628;9.002;2023-02-28T12:50:15;6.60;;;0.95;;
75520;SDS011;64102;48.628;9.002;2023-02-28T12:52:56;5.65;;;1.15;;
75520;SDS011;64102;48.628;9.002;2023-02-28T12:58:47;8.10;;;1.40;;
75520;SDS011;64102;48.628;9.002;2023-02-28T13:11:43;7.60;;;1.30;;
75520;SDS011;64102;48.628;9.002;2023-02-28T13:14:29;5.10;;;0.80;;
75520;SDS011;64102;48.628;9.002;2023-02-28T13:19:36;5.20;;;0.55;;
75520;SDS011;64102;48.628;9.002;2023-02-28T13:25:00;4.45;;;0.70;;
75520;SDS011;64102;48.628;9.002;2023-02-28T13:27:36;4.72;;;0.60;;
75520;SDS011;64102;48.628;9.002;2023-02-28T13:33:21;6.70;;;0.68;;
75520;SDS011;64102;48.628;9.002;2023-02-28T13:46:29;6.03;;;1.05;;
75520;SDS011;64102;48.628;9.002;2023-02-28T13:48:56;2.85;;;0.38;;
75520;SDS011;64102;48.628;9.002;2023-02-28T13:51:48;7.15;;;0.95;;
75520;SDS011;64102;48.628;9.002;2023-02-28T13:54:17;7.20;;;0.90;;
75520;SDS011;64102;48.628;9.002;2023-02-28T13:59:28;3.75;;;0.60;;
75520;SDS011;64102;48.628;9.002;2023-02-28T14:02:23;7.53;;;1.30;;
75520;SDS011;64102;48.628;9.002;2023-02-28T14:05:18;9.57;;;1.60;;
75520;SDS011;64102;48.628;9.002;2023-02-28T14:07:54;9.50;;;1.52;;
75520;SDS011;64102;48.628;9.002;2023-02-28T14:15:28;9.32;;;2.03;;
75520;SDS011;64102;48.628;9.002;2023-02-28T14:18:01;8.10;;;1.58;;
75520;SDS011;64102;48.628;9.002;2023-02-28T14:20:31;10.23;;;1.52;;
75520;SDS011;64102;48.628;9.002;2023-02-28T14:26:41;5.57;;;1.05;;
75520;SDS011;64102;48.628;9.002;2023-02-28T14:31:53;8.70;;;1.65;;
75520;SDS011;64102;48.628;9.002;2023-02-28T14:37:10;8.48;;;1.33;;
75520;SDS011;64102;48.628;9.002;2023-02-28T14:39:41;8.70;;;1.35;;
75520;SDS011;64102;48.628;9.002;2023-02-28T14:42:28;7.95;;;1.52;;
75520;SDS011;64102;48.628;9.002;2023-02-28T14:44:57;10.40;;;1.65;;
75520;SDS011;64102;48.628;9.002;2023-02-28T14:47:23;8.65;;;1.63;;
75520;SDS011;64102;48.628;9.002;2023-02-28T14:49:53;9.35;;;1.70;;
75520;SDS011;64102;48.628;9.002;2023-02-28T14:52:20;8.30;;;1.42;;
75520;SDS011;64102;48.628;9.002;2023-02-28T14:54:52;6.05;;;0.80;;
75520;SDS011;64102;48.628;9.002;2023-02-28T14:57:23;9.02;;;1.60;;
75520;SDS011;64102;48.628;9.002;2023-02-28T15:00:07;8.43;;;1.70;;
75520;SDS011;64102;48.628;9.002;2023-02-28T15:02:39;6.93;;;0.93;;
75520;SDS011;64102;48.628;9.002;2023-02-28T15:07:43;7.85;;;1.33;;
75520;SDS011;64102;48.628;9.002;2023-02-28T15:10:10;6.25;;;1.27;;
75520;SDS011;64102;48.628;9.002;2023-02-28T15:12:36;7.15;;;1.25;;
75520;SDS011;64102;48.628;9.002;2023-02-28T15:15:04;7.78;;;1.58;;
75520;SDS011;64102;48.628;9.002;2023-02-28T15:17:31;8.63;;;1.50;;
75520;SDS011;64102;48.628;9.002;2023-02-28T15:19:56;10.50;;;1.45;;
75520;SDS011;64102;48.628;9.002;2023-02-28T15:22:30;7.78;;;1.33;;
75520;SDS011;64102;48.628;9.002;2023-02-28T15:25:00;7.93;;;1.40;;
75520;SDS011;64102;48.628;9.002;2023-02-28T15:27:29;10.30;;;1.85;;
75520;SDS011;64102;48.628;9.002;2023-02-28T15:30:01;9.27;;;1.27;;
75520;SDS011;64102;48.628;9.002;2023-02-28T15:32:36;8.20;;;1.25;;
75520;SDS011;64102;48.628;9.002;2023-02-28T15:37:54;7.50;;;0.95;;
75520;SDS011;64102;48.628;9.002;2023-02-28T15:43:06;10.82;;;1.40;;
75520;SDS011;64102;48.628;9.002;2023-02-28T15:48:22;8.35;;;1.30;;
75520;SDS011;64102;48.628;9.002;2023-02-28T15:50:51;8.10;;;1.20;;
75520;SDS011;64102;48.628;9.002;2023-02-28T15:53:23;10.60;;;1.15;;
75520;SDS011;64102;48.628;9.002;2023-02-28T15:55:55;7.97;;;1.13;;
75520;SDS011;64102;48.628;9.002;2023-02-28T15:58:25;6.97;;;1.35;;
75520;SDS011;64102;48.628;9.002;2023-02-28T16:02:01;7.95;;;0.85;;
75520;SDS011;64102;48.628;9.002;2023-02-28T16:03:51;9.45;;;1.23;;
75520;SDS011;64102;48.628;9.002;2023-02-28T16:06:24;8.65;;;1.10;;
75520;SDS011;64102;48.628;9.002;2023-02-28T16:08:56;9.75;;;1.52;;
75520;SDS011;64102;48.628;9.002;2023-02-28T16:11:22;10.13;;;1.73;;
75520;SDS011;64102;48.628;9.002;2023-02-28T16:13:47;7.35;;;0.98;;
75520;SDS011;64102;48.628;9.002;2023-02-28T16:16:18;9.02;;;1.33;;
75520;SDS011;64102;48.628;9.002;2023-02-28T16:18:49;8.93;;;1.70;;
75520;SDS011;64102;48.628;9.002;2023-02-28T16:21:15;11.23;;;1.90;;
75520;SDS011;64102;48.628;9.002;2023-02-28T16:23:41;8.15;;;0.93;;
75520;SDS011;64102;48.628;9.002;2023-02-28T16:26:06;7.65;;;1.02;;
75520;SDS011;64102;48.628;9.002;2023-02-28T16:28:34;9.30;;;1.60;;
75520;SDS011;64102;48.628;9.002;2023-02-28T16:31:03;6.95;;;1.25;;
75520;SDS011;64102;48.628;9.002;2023-02-28T16:33:31;7.80;;;0.93;;
75520;SDS011;64102;48.628;9.002;2023-02-28T16:35:58;9.60;;;1.00;;
75520;SDS011;64102;48.628;9.002;2023-02-28T16:38:23;8.55;;;1.13;;
75520;SDS011;64102;48.628;9.002;2023-02-28T16:40:50;8.02;;;1.20;;
75520;SDS011;64102;48.628;9.002;2023-02-28T16:43:17;7.80;;;1.25;;
75520;SDS011;64102;48.628;9.002;2023-02-28T16:45:46;7.22;;;0.85;;
75520;SDS011;64102;48.628;9.002;2023-02-28T16:48:12;5.90;;;0.75;;
75520;SDS011;64102;48.628;9.002;2023-02-28T16:50:39;4.47;;;0.45;;
75520;SDS011;64102;48.628;9.002;2023-02-28T16:53:04;8.57;;;1.37;;
75520;SDS011;64102;48.628;9.002;2023-02-28T16:55:29;7.00;;;0.70;;
75520;SDS011;64102;48.628;9.002;2023-02-28T16:57:56;6.60;;;0.93;;
75520;SDS011;64102;48.628;9.002;2023-02-28T17:00:23;9.77;;;1.85;;
75520;SDS011;64102;48.628;9.002;2023-02-28T17:02:49;7.45;;;1.08;;
75520;SDS011;64102;48.628;9.002;2023-02-28T17:05:15;8.15;;;0.88;;
75520;SDS011;64102;48.628;9.002;2023-02-28T17:07:40;8.45;;;1.13;;
75520;SDS011;64102;48.628;9.002;2023-02-28T17:10:13;9.43;;;1.17;;
75520;SDS011;64102;48.628;9.002;2023-02-28T17:12:44;7.30;;;0.95;;
75520;SDS011;64102;48.628;9.002;2023-02-28T17:15:13;11.30;;;1.40;;
75520;SDS011;64102;48.628;9.002;2023-02-28T17:17:39;9.38;;;1.17;;
75520;SDS011;64102;48.628;9.002;2023-02-28T17:20:06;8.18;;;1.08;;
75520;SDS011;64102;48.628;9.002;2023-02-28T17:22:36;10.30;;;1.15;;
75520;SDS011;64102;48.628;9.002;2023-02-28T17:25:01;11.10;;;1.27;;
75520;SDS011;64102;48.628;9.002;2023-02-28T17:27:27;9.10;;;1.00;;
75520;SDS011;64102;48.628;9.002;2023-02-28T17:29:52;6.95;;;1.08;;
75520;SDS011;64102;48.628;9.002;2023-02-28T17:32:17;9.93;;;1.50;;
75520;SDS011;64102;48.628;9.002;2023-02-28T17:34:43;8.52;;;1.42;;
75520;SDS011;64102;48.628;9.002;2023-02-28T17:37:09;8.15;;;1.27;;
75520;SDS011;64102;48.628;9.002;2023-02-28T17:39:34;7.03;;;1.02;;
75520;SDS011;64102;48.628;9.002;2023-02-28T17:42:00;7.85;;;1.05;;
75520;SDS011;64102;48.628;9.002;2023-02-28T17:44:25;7.30;;;0.95;;